Flight Track Log - Related Links

Times and Time Zones

All times are in EDT time to prevent confusion due to time zone crossing. See the AAY816 flight status page for this flight to view local times or setup timezone preferences in your user account.

Time Position Orientation Groundspeed Altitude Reporting Facility
EDT Latitude Longitude Course Direction KTS MPH feet Rate Location/Type
Wed 07:10:08 AM 27.9000 -82.6833 180° South 160 184 800  Level Tampa TRACON
Wed 07:10:50 AM 27.8667 -82.6833 233° Southwest 186 214 1,700 2,000 Climbing Tampa TRACON
Wed 07:11:50 AM 27.8333 -82.7333 358° North 222 255 4,200 2,163 Climbing Tampa TRACON
Wed 07:15:33 AM 28.1144 -82.7419 North 310 357 11,900 2,049 Climbing Jacksonville Center
Wed 07:16:34 AM 28.2375 -82.7300 North 359 413 13,900 2,182 Climbing Jacksonville Center
Wed 07:17:34 AM 28.3417 -82.7228 North 403 464 16,300 2,269 Climbing Jacksonville Center
Wed 07:18:33 AM 28.4567 -82.7131 North 410 472 18,400 2,017 Climbing Jacksonville Center
Wed 07:19:33 AM 28.5797 -82.7033 North 421 484 20,300 1,850 Climbing Jacksonville Center
Wed 07:20:33 AM 28.7111 -82.6889 North 426 490 22,100 1,700 Climbing Jacksonville Center
Wed 07:21:33 AM 28.8342 -82.6864 360° North 431 496 23,700 1,700 Climbing Jacksonville Center
Wed 07:22:33 AM 28.9636 -82.6861 357° North 443 510 25,500 1,850 Climbing Jacksonville Center
Wed 07:23:33 AM 29.0889 -82.6931 North 448 516 27,400 1,700 Climbing Jacksonville Center
Wed 07:24:33 AM 29.2142 -82.6903 North 448 516 28,900 1,650 Climbing Jacksonville Center
Wed 07:25:33 AM 29.3414 -82.6853 North 448 516 30,700 1,600 Climbing Jacksonville Center
Wed 07:26:33 AM 29.4625 -82.6828 North 441 507 32,100 1,100 Climbing Jacksonville Center
Wed 07:27:33 AM 29.5711 -82.6800 North 436 502 32,900 400 Climbing Jacksonville Center
Wed 07:28:33 AM 29.6942 -82.6725 North 436 502 32,900  Level Jacksonville Center
Wed 07:29:33 AM 29.8133 -82.6581 North 436 502 32,900  Level Jacksonville Center
Wed 07:30:33 AM 29.9364 -82.6506 North 441 507 32,900  Level Jacksonville Center
Wed 07:31:33 AM 30.0553 -82.6381 North 441 507 32,900  Level Jacksonville Center
Wed 07:32:33 AM 30.1764 -82.6283 North 441 507 32,900  Level Jacksonville Center
Wed 07:33:33 AM 30.2997 -82.6158 North 436 502 32,900  Level Jacksonville Center
Wed 07:34:33 AM 30.4206 -82.6011 North 441 507 32,900  Level Jacksonville Center
Wed 07:35:33 AM 30.5439 -82.5936 North 441 507 32,900  Level Jacksonville Center
Wed 07:36:33 AM 30.6669 -82.5833 North 441 507 32,900  Level Jacksonville Center
Wed 07:37:33 AM 30.7903 -82.5733 North 441 507 32,900  Level Jacksonville Center
Wed 07:38:33 AM 30.9133 -82.5608 North 441 507 32,900  Level Jacksonville Center
Wed 07:39:33 AM 31.0364 -82.5508 North 441 507 32,900  Level Jacksonville Center
Wed 07:40:33 AM 31.1575 -82.5431 North 441 507 32,900  Level Jacksonville Center
Wed 07:41:33 AM 31.2828 -82.5303 North 441 507 32,900 50 Level Jacksonville Center
Wed 07:42:33 AM 31.4144 -82.5153 North 441 507 33,000 50 Climbing Jacksonville Center
Wed 07:43:33 AM 31.5353 -82.5050 North 436 502 33,000  Level Jacksonville Center
Wed 07:44:28 AM 31.6367 -82.4925 North 448 516 33,000  Level Atlanta Center
Wed 07:45:28 AM 31.7556 -82.4733 North 448 516 33,000  Level Atlanta Center
Wed 07:46:28 AM 31.8783 -82.4542 North 442 509 33,000  Level Atlanta Center
Wed 07:47:28 AM 31.9969 -82.4347 North 436 502 33,000  Level Atlanta Center
Wed 07:48:28 AM 32.1178 -82.4156 North 436 502 33,000  Level Atlanta Center
Wed 07:49:28 AM 32.2386 -82.3961 North 441 507 33,000  Level Atlanta Center
Wed 07:50:28 AM 32.3575 -82.3792 North 436 502 33,000  Level Atlanta Center
Wed 07:51:28 AM 32.4781 -82.3572 North 436 502 33,000  Level Atlanta Center
Wed 07:52:28 AM 32.5947 -82.3400 North 436 502 33,000  Level Atlanta Center
Wed 07:53:28 AM 32.7178 -82.3231 North 436 502 33,000  Level Atlanta Center
Wed 07:54:28 AM 32.8364 -82.3033 North 431 496 33,000  Level Atlanta Center
Wed 07:55:28 AM 32.9531 -82.2836 North 425 489 33,000  Level Atlanta Center
Wed 07:56:28 AM 33.0758 -82.2639 North 425 489 33,000  Level Atlanta Center
Wed 07:57:28 AM 33.1947 -82.2442 North 430 495 33,000  Level Atlanta Center
Wed 07:58:28 AM 33.3133 -82.2242 North 430 495 33,000  Level Atlanta Center
Wed 07:59:28 AM 33.4300 -82.2044 North 425 489 33,000  Level Atlanta Center
Wed 08:00:28 AM 33.5506 -82.1842 North 425 489 33,000  Level Atlanta Center
Wed 08:01:28 AM 33.6839 -82.1639 North 431 496 33,000  Level Atlanta Center
Wed 08:02:28 AM 33.8047 -82.1414 North 431 496 33,000  Level Atlanta Center
Wed 08:03:28 AM 33.9275 -82.1211 North 436 502 33,000  Level Atlanta Center
Wed 08:04:28 AM 34.0461 -82.1008 North 436 502 33,000  Level Atlanta Center
Wed 08:05:28 AM 34.1647 -82.0781 North 436 502 33,000  Level Atlanta Center
Wed 08:06:28 AM 34.2833 -82.0603 North 436 502 33,000 -397 Level Atlanta Center
Wed 08:07:29 AM 34.4019 -82.0372 North 431 496 32,200 -900 Descending Atlanta Center
Wed 08:08:28 AM 34.5228 -82.0167 North 431 496 31,200 -600 Descending Atlanta Center
Wed 08:09:29 AM 34.6433 -81.9961 North 431 496 31,000 -100 Descending Atlanta Center
Wed 08:10:28 AM 34.7578 -81.9758 North 437 503 31,000  Level Atlanta Center
Wed 08:11:28 AM 34.8783 -81.9525 North 437 503 31,000  Level Atlanta Center
Wed 08:12:28 AM 34.9992 -81.9367 North 444 511 31,000  Level Atlanta Center
Wed 08:13:28 AM 35.1222 -81.9261 North 439 505 31,000  Level Atlanta Center
Wed 08:14:28 AM 35.2431 -81.9206 North 439 505 31,000  Level Atlanta Center
Wed 08:15:28 AM 35.3786 -81.9144 North 439 505 31,000  Level Atlanta Center
Wed 08:16:28 AM 35.4994 -81.9086 North 439 505 31,000 -400 Level Atlanta Center
Wed 08:17:28 AM 35.6225 -81.9031 North 439 505 30,200 -700 Descending Atlanta Center
Wed 08:18:28 AM 35.7475 -81.8972 North 439 505 29,600 -800 Descending Atlanta Center
Wed 08:19:28 AM 35.8725 -81.8911 North 439 505 28,600 -1,000 Descending Atlanta Center
Wed 08:20:28 AM 35.9978 -81.8853 North 446 513 27,600 -800 Descending Atlanta Center
Wed 08:21:28 AM 36.1061 -81.8800 North 441 507 27,000 -300 Descending Atlanta Center
Wed 08:22:28 AM 36.2269 -81.8717 North 436 502 27,000 -150 Level Atlanta Center
Wed 08:23:28 AM 36.3519 -81.8656 North 442 509 26,700 -741 Descending Atlanta Center
Wed 08:25:10 AM 36.5558 -81.8558 North 434 499 25,000 -1,000 Descending Indianapolis Center
Wed 08:26:10 AM 36.6725 -81.8508 North 428 493 24,000 -496 Descending Indianapolis Center
Wed 08:27:11 AM 36.7914 -81.8453 North 422 486 24,000  Level Indianapolis Center
Wed 08:28:11 AM 36.9103 -81.8375 North 422 486 24,000  Level Indianapolis Center
Wed 08:29:10 AM 37.0269 -81.8322 North 422 486 24,000 -100 Level Indianapolis Center
Wed 08:30:11 AM 37.1458 -81.8269 North 422 486 23,800 -595 Descending Indianapolis Center
Wed 08:31:11 AM 37.2603 -81.8217 343° North 422 486 22,800 -1,000 Descending Indianapolis Center
Wed 08:32:11 AM 37.3631 -81.8611 331° Northwest 403 464 21,800 -1,000 Descending Indianapolis Center
Wed 08:33:11 AM 37.4558 -81.9269 332° Northwest 381 438 20,800 -1,650 Descending Indianapolis Center
Wed 08:34:11 AM 37.5506 -81.9906 332° Northwest 381 438 18,500 -2,300 Descending Indianapolis Center
Wed 08:35:11 AM 37.6433 -82.0542 331° Northwest 381 438 16,200 -2,400 Descending Indianapolis Center
Wed 08:36:11 AM 37.7317 -82.1153 331° Northwest 376 433 13,700 -2,350 Descending Indianapolis Center
Wed 08:37:11 AM 37.8200 -82.1767 331° Northwest 371 427 11,500 -1,650 Descending Indianapolis Center
Wed 08:38:11 AM 37.8956 -82.2306 332° Northwest 339 390 10,400 -1,050 Descending Indianapolis Center
Wed 08:39:11 AM 37.9650 -82.2767 341° North 298 343 9,400 -1,361 Descending Indianapolis Center
Wed 08:40:10 AM 38.0342 -82.3072 342° North 273 314 7,700 -1,650 Descending Indianapolis Center
Wed 08:41:11 AM 38.1075 -82.3375 324° Northwest 268 308 6,100 -1,488 Descending Indianapolis Center
Wed 08:42:11 AM 38.1644 -82.3894 322° Northwest 262 302 4,700 -1,350 Descending Indianapolis Center
Wed 08:43:11 AM 38.2169 -82.4417 317° Northwest 249 287 3,400 -1,050 Descending Indianapolis Center
Wed 08:44:11 AM 38.2592 -82.4911 293° West 229 264 2,600 -400 Descending Indianapolis Center
Wed 08:45:11 AM 38.2783 -82.5492 290° West 189 217 2,600  Level Indianapolis Center
Wed 08:46:11 AM 38.2956 -82.6097 290° West 177 204 2,600  Level Indianapolis Center

Login

Don't have an account? Register now (free) for customized features, flight alerts, and more!